sensor_id;sensor_type;location;lat;lon;timestamp;P1;durP1;ratioP1;P2;durP2;ratioP2
22754;SDS011;11544;42.020;23.094;2023-04-08T00:01:54;12.52;;;7.55;;
22754;SDS011;11544;42.020;23.094;2023-04-08T00:04:21;9.88;;;7.18;;
22754;SDS011;11544;42.020;23.094;2023-04-08T00:06:49;11.20;;;7.15;;
22754;SDS011;11544;42.020;23.094;2023-04-08T00:09:17;7.55;;;5.88;;
22754;SDS011;11544;42.020;23.094;2023-04-08T00:11:44;9.40;;;6.63;;
22754;SDS011;11544;42.020;23.094;2023-04-08T00:14:11;11.02;;;7.35;;
22754;SDS011;11544;42.020;23.094;2023-04-08T00:16:38;12.80;;;7.60;;
22754;SDS011;11544;42.020;23.094;2023-04-08T00:19:08;10.80;;;7.75;;
22754;SDS011;11544;42.020;23.094;2023-04-08T00:21:59;9.57;;;7.45;;
22754;SDS011;11544;42.020;23.094;2023-04-08T00:24:29;13.25;;;6.90;;
22754;SDS011;11544;42.020;23.094;2023-04-08T00:27:01;12.38;;;7.03;;
22754;SDS011;11544;42.020;23.094;2023-04-08T00:29:28;10.55;;;7.68;;
22754;SDS011;11544;42.020;23.094;2023-04-08T00:31:55;10.82;;;5.93;;
22754;SDS011;11544;42.020;23.094;2023-04-08T00:34:22;9.27;;;6.38;;
22754;SDS011;11544;42.020;23.094;2023-04-08T00:36:52;10.63;;;6.72;;
22754;SDS011;11544;42.020;23.094;2023-04-08T00:39:19;10.65;;;7.30;;
22754;SDS011;11544;42.020;23.094;2023-04-08T00:41:48;13.50;;;6.80;;
22754;SDS011;11544;42.020;23.094;2023-04-08T00:44:16;12.43;;;6.95;;
22754;SDS011;11544;42.020;23.094;2023-04-08T00:46:42;14.60;;;7.05;;
22754;SDS011;11544;42.020;23.094;2023-04-08T00:49:10;9.02;;;6.00;;
22754;SDS011;11544;42.020;23.094;2023-04-08T00:51:37;9.23;;;6.90;;
22754;SDS011;11544;42.020;23.094;2023-04-08T00:54:05;12.57;;;6.47;;
22754;SDS011;11544;42.020;23.094;2023-04-08T00:56:33;14.43;;;6.97;;
22754;SDS011;11544;42.020;23.094;2023-04-08T00:59:01;9.77;;;6.63;;
22754;SDS011;11544;42.020;23.094;2023-04-08T01:01:33;12.25;;;6.78;;
22754;SDS011;11544;42.020;23.094;2023-04-08T01:09:26;8.98;;;5.95;;
22754;SDS011;11544;42.020;23.094;2023-04-08T01:11:59;9.10;;;6.15;;
22754;SDS011;11544;42.020;23.094;2023-04-08T01:14:38;9.27;;;6.20;;
22754;SDS011;11544;42.020;23.094;2023-04-08T01:17:09;13.48;;;7.10;;
22754;SDS011;11544;42.020;23.094;2023-04-08T01:19:38;10.07;;;6.90;;
22754;SDS011;11544;42.020;23.094;2023-04-08T01:24:42;12.93;;;7.22;;
22754;SDS011;11544;42.020;23.094;2023-04-08T01:27:14;10.85;;;7.75;;
22754;SDS011;11544;42.020;23.094;2023-04-08T01:30:18;17.33;;;9.38;;
22754;SDS011;11544;42.020;23.094;2023-04-08T01:44:54;11.77;;;8.02;;
22754;SDS011;11544;42.020;23.094;2023-04-08T01:54:11;9.20;;;6.55;;
22754;SDS011;11544;42.020;23.094;2023-04-08T01:56:51;9.40;;;6.43;;
22754;SDS011;11544;42.020;23.094;2023-04-08T01:59:23;8.35;;;6.13;;
22754;SDS011;11544;42.020;23.094;2023-04-08T02:01:55;8.45;;;6.63;;
22754;SDS011;11544;42.020;23.094;2023-04-08T02:04:23;12.13;;;7.70;;
22754;SDS011;11544;42.020;23.094;2023-04-08T02:06:51;8.13;;;6.13;;
22754;SDS011;11544;42.020;23.094;2023-04-08T02:09:18;11.32;;;7.32;;
22754;SDS011;11544;42.020;23.094;2023-04-08T02:11:46;8.80;;;6.40;;
22754;SDS011;11544;42.020;23.094;2023-04-08T02:14:13;10.13;;;6.53;;
22754;SDS011;11544;42.020;23.094;2023-04-08T02:16:47;12.85;;;6.88;;
22754;SDS011;11544;42.020;23.094;2023-04-08T02:19:23;11.23;;;6.68;;
22754;SDS011;11544;42.020;23.094;2023-04-08T02:22:00;10.65;;;7.30;;
22754;SDS011;11544;42.020;23.094;2023-04-08T02:24:32;10.30;;;6.97;;
22754;SDS011;11544;42.020;23.094;2023-04-08T02:27:08;9.63;;;6.63;;
22754;SDS011;11544;42.020;23.094;2023-04-08T02:30:17;9.38;;;5.80;;
22754;SDS011;11544;42.020;23.094;2023-04-08T02:34:05;11.40;;;6.78;;
22754;SDS011;11544;42.020;23.094;2023-04-08T02:37:02;11.27;;;7.10;;
22754;SDS011;11544;42.020;23.094;2023-04-08T02:39:30;13.25;;;6.70;;
22754;SDS011;11544;42.020;23.094;2023-04-08T02:41:58;9.93;;;6.68;;
22754;SDS011;11544;42.020;23.094;2023-04-08T02:44:27;7.60;;;6.32;;
22754;SDS011;11544;42.020;23.094;2023-04-08T02:50:46;9.85;;;6.28;;
22754;SDS011;11544;42.020;23.094;2023-04-08T02:53:40;11.40;;;7.30;;
22754;SDS011;11544;42.020;23.094;2023-04-08T02:56:10;9.57;;;6.82;;
22754;SDS011;11544;42.020;23.094;2023-04-08T02:59:20;7.85;;;6.45;;
22754;SDS011;11544;42.020;23.094;2023-04-08T03:07:09;11.45;;;6.82;;
22754;SDS011;11544;42.020;23.094;2023-04-08T03:10:25;15.45;;;7.97;;
22754;SDS011;11544;42.020;23.094;2023-04-08T03:13:18;9.90;;;7.18;;
22754;SDS011;11544;42.020;23.094;2023-04-08T03:38:09;13.98;;;9.70;;
22754;SDS011;11544;42.020;23.094;2023-04-08T03:40:37;16.65;;;8.82;;
22754;SDS011;11544;42.020;23.094;2023-04-08T03:43:07;13.43;;;9.63;;
22754;SDS011;11544;42.020;23.094;2023-04-08T03:45:34;13.18;;;8.65;;
22754;SDS011;11544;42.020;23.094;2023-04-08T03:48:02;17.75;;;9.65;;
22754;SDS011;11544;42.020;23.094;2023-04-08T03:50:29;15.60;;;9.23;;
22754;SDS011;11544;42.020;23.094;2023-04-08T03:52:56;15.70;;;9.35;;
22754;SDS011;11544;42.020;23.094;2023-04-08T03:55:23;13.48;;;8.68;;
22754;SDS011;11544;42.020;23.094;2023-04-08T03:57:50;17.23;;;10.25;;
22754;SDS011;11544;42.020;23.094;2023-04-08T04:00:18;15.60;;;9.88;;
22754;SDS011;11544;42.020;23.094;2023-04-08T04:02:45;15.75;;;9.88;;
22754;SDS011;11544;42.020;23.094;2023-04-08T04:05:12;15.30;;;9.63;;
22754;SDS011;11544;42.020;23.094;2023-04-08T04:07:40;15.52;;;9.10;;
22754;SDS011;11544;42.020;23.094;2023-04-08T04:10:07;15.73;;;9.68;;
22754;SDS011;11544;42.020;23.094;2023-04-08T04:12:54;16.88;;;10.73;;
22754;SDS011;11544;42.020;23.094;2023-04-08T07:17:12;16.92;;;10.85;;
22754;SDS011;11544;42.020;23.094;2023-04-08T07:19:48;18.00;;;13.23;;
22754;SDS011;11544;42.020;23.094;2023-04-08T07:22:37;17.05;;;12.00;;
22754;SDS011;11544;42.020;23.094;2023-04-08T07:25:09;19.10;;;12.27;;
22754;SDS011;11544;42.020;23.094;2023-04-08T07:27:53;14.38;;;10.80;;
22754;SDS011;11544;42.020;23.094;2023-04-08T07:30:47;18.98;;;11.68;;
22754;SDS011;11544;42.020;23.094;2023-04-08T07:33:17;18.75;;;12.23;;
22754;SDS011;11544;42.020;23.094;2023-04-08T07:35:45;15.45;;;11.30;;
22754;SDS011;11544;42.020;23.094;2023-04-08T07:38:14;17.95;;;11.55;;
22754;SDS011;11544;42.020;23.094;2023-04-08T07:40:51;14.07;;;9.80;;
22754;SDS011;11544;42.020;23.094;2023-04-08T07:43:32;17.77;;;11.10;;
22754;SDS011;11544;42.020;23.094;2023-04-08T07:46:08;20.08;;;13.60;;
22754;SDS011;11544;42.020;23.094;2023-04-08T07:48:54;17.15;;;10.63;;
22754;SDS011;11544;42.020;23.094;2023-04-08T07:51:35;13.10;;;9.48;;
22754;SDS011;11544;42.020;23.094;2023-04-08T07:54:23;13.13;;;9.52;;
22754;SDS011;11544;42.020;23.094;2023-04-08T07:56:50;11.30;;;8.32;;
22754;SDS011;11544;42.020;23.094;2023-04-08T07:59:43;14.65;;;9.30;;
22754;SDS011;11544;42.020;23.094;2023-04-08T08:03:01;13.05;;;9.10;;
22754;SDS011;11544;42.020;23.094;2023-04-08T08:06:11;13.68;;;8.95;;
22754;SDS011;11544;42.020;23.094;2023-04-08T08:09:22;13.55;;;9.63;;
22754;SDS011;11544;42.020;23.094;2023-04-08T08:12:09;13.88;;;9.10;;
22754;SDS011;11544;42.020;23.094;2023-04-08T08:15:36;14.10;;;8.68;;
22754;SDS011;11544;42.020;23.094;2023-04-08T08:18:43;17.48;;;10.38;;
22754;SDS011;11544;42.020;23.094;2023-04-08T08:21:47;14.00;;;10.55;;
22754;SDS011;11544;42.020;23.094;2023-04-08T08:24:32;11.68;;;9.43;;
22754;SDS011;11544;42.020;23.094;2023-04-08T08:27:13;18.92;;;10.07;;
22754;SDS011;11544;42.020;23.094;2023-04-08T08:30:03;17.98;;;9.60;;
22754;SDS011;11544;42.020;23.094;2023-04-08T08:38:45;14.98;;;10.02;;
22754;SDS011;11544;42.020;23.094;2023-04-08T08:41:19;14.75;;;9.30;;
22754;SDS011;11544;42.020;23.094;2023-04-08T08:44:30;13.63;;;9.35;;
22754;SDS011;11544;42.020;23.094;2023-04-08T08:47:59;11.60;;;9.50;;
22754;SDS011;11544;42.020;23.094;2023-04-08T08:58:26;10.90;;;8.52;;
22754;SDS011;11544;42.020;23.094;2023-04-08T09:09:51;13.88;;;8.60;;
22754;SDS011;11544;42.020;23.094;2023-04-08T09:12:51;12.10;;;6.70;;
22754;SDS011;11544;42.020;23.094;2023-04-08T09:18:36;10.65;;;6.97;;
22754;SDS011;11544;42.020;23.094;2023-04-08T09:25:38;9.50;;;6.15;;
22754;SDS011;11544;42.020;23.094;2023-04-08T09:28:18;11.10;;;6.70;;
22754;SDS011;11544;42.020;23.094;2023-04-08T09:31:21;9.15;;;6.40;;
22754;SDS011;11544;42.020;23.094;2023-04-08T09:34:37;6.82;;;6.00;;
22754;SDS011;11544;42.020;23.094;2023-04-08T09:37:07;7.35;;;5.20;;
22754;SDS011;11544;42.020;23.094;2023-04-08T09:43:49;9.23;;;5.70;;
22754;SDS011;11544;42.020;23.094;2023-04-08T09:46:24;6.80;;;4.93;;
22754;SDS011;11544;42.020;23.094;2023-04-08T09:58:10;7.72;;;5.18;;
22754;SDS011;11544;42.020;23.094;2023-04-08T10:01:35;7.68;;;4.85;;
22754;SDS011;11544;42.020;23.094;2023-04-08T10:04:17;8.73;;;5.07;;
22754;SDS011;11544;42.020;23.094;2023-04-08T10:06:51;6.35;;;4.45;;
22754;SDS011;11544;42.020;23.094;2023-04-08T10:09:28;7.93;;;5.45;;
22754;SDS011;11544;42.020;23.094;2023-04-08T10:12:05;6.90;;;4.53;;
22754;SDS011;11544;42.020;23.094;2023-04-08T10:14:33;8.93;;;5.35;;
22754;SDS011;11544;42.020;23.094;2023-04-08T10:20:06;7.53;;;5.30;;
22754;SDS011;11544;42.020;23.094;2023-04-08T10:23:11;9.23;;;5.97;;
22754;SDS011;11544;42.020;23.094;2023-04-08T10:26:29;6.97;;;5.28;;
22754;SDS011;11544;42.020;23.094;2023-04-08T10:31:55;8.90;;;6.20;;
22754;SDS011;11544;42.020;23.094;2023-04-08T10:34:26;8.27;;;5.95;;
22754;SDS011;11544;42.020;23.094;2023-04-08T10:37:02;8.70;;;5.72;;
22754;SDS011;11544;42.020;23.094;2023-04-08T10:39:31;8.40;;;5.65;;
22754;SDS011;11544;42.020;23.094;2023-04-08T10:42:10;10.57;;;6.25;;
22754;SDS011;11544;42.020;23.094;2023-04-08T10:44:43;10.77;;;6.15;;
22754;SDS011;11544;42.020;23.094;2023-04-08T10:47:40;6.35;;;5.40;;
22754;SDS011;11544;42.020;23.094;2023-04-08T10:52:54;5.70;;;5.03;;
22754;SDS011;11544;42.020;23.094;2023-04-08T10:55:29;7.63;;;4.97;;
22754;SDS011;11544;42.020;23.094;2023-04-08T10:58:09;6.57;;;4.38;;
22754;SDS011;11544;42.020;23.094;2023-04-08T11:00:50;7.35;;;4.97;;
22754;SDS011;11544;42.020;23.094;2023-04-08T11:04:05;6.25;;;4.97;;
22754;SDS011;11544;42.020;23.094;2023-04-08T11:06:45;6.93;;;4.93;;
22754;SDS011;11544;42.020;23.094;2023-04-08T11:09:13;6.10;;;4.80;;
22754;SDS011;11544;42.020;23.094;2023-04-08T11:11:44;5.53;;;4.80;;
22754;SDS011;11544;42.020;23.094;2023-04-08T11:14:14;8.57;;;5.22;;
22754;SDS011;11544;42.020;23.094;2023-04-08T11:19:34;6.38;;;5.07;;
22754;SDS011;11544;42.020;23.094;2023-04-08T11:22:04;7.03;;;4.97;;
22754;SDS011;11544;42.020;23.094;2023-04-08T11:24:35;5.53;;;4.43;;
22754;SDS011;11544;42.020;23.094;2023-04-08T11:27:12;7.35;;;4.72;;
22754;SDS011;11544;42.020;23.094;2023-04-08T11:29:43;5.35;;;4.80;;
22754;SDS011;11544;42.020;23.094;2023-04-08T11:32:12;7.65;;;5.00;;
22754;SDS011;11544;42.020;23.094;2023-04-08T11:34:43;5.47;;;4.80;;
22754;SDS011;11544;42.020;23.094;2023-04-08T11:37:12;6.50;;;4.97;;
22754;SDS011;11544;42.020;23.094;2023-04-08T11:39:46;5.65;;;4.22;;
22754;SDS011;11544;42.020;23.094;2023-04-08T11:42:31;7.63;;;4.97;;
22754;SDS011;11544;42.020;23.094;2023-04-08T11:44:58;4.68;;;3.90;;
22754;SDS011;11544;42.020;23.094;2023-04-08T11:47:30;5.63;;;4.55;;
22754;SDS011;11544;42.020;23.094;2023-04-08T11:49:59;7.18;;;4.15;;
22754;SDS011;11544;42.020;23.094;2023-04-08T11:55:26;5.40;;;4.32;;
22754;SDS011;11544;42.020;23.094;2023-04-08T11:57:56;8.63;;;4.28;;
22754;SDS011;11544;42.020;23.094;2023-04-08T12:00:27;5.82;;;4.03;;
22754;SDS011;11544;42.020;23.094;2023-04-08T12:02:54;5.68;;;3.95;;
22754;SDS011;11544;42.020;23.094;2023-04-08T12:05:22;5.47;;;3.78;;
22754;SDS011;11544;42.020;23.094;2023-04-08T12:07:49;4.50;;;3.78;;
22754;SDS011;11544;42.020;23.094;2023-04-08T12:10:16;7.82;;;4.07;;
22754;SDS011;11544;42.020;23.094;2023-04-08T12:12:43;4.55;;;4.00;;
22754;SDS011;11544;42.020;23.094;2023-04-08T12:15:10;6.38;;;4.80;;
22754;SDS011;11544;42.020;23.094;2023-04-08T12:17:37;5.45;;;4.25;;
22754;SDS011;11544;42.020;23.094;2023-04-08T12:20:05;5.03;;;4.28;;
22754;SDS011;11544;42.020;23.094;2023-04-08T12:22:33;7.47;;;4.50;;
22754;SDS011;11544;42.020;23.094;2023-04-08T12:24:59;5.22;;;4.70;;
22754;SDS011;11544;42.020;23.094;2023-04-08T12:27:29;4.80;;;4.28;;
22754;SDS011;11544;42.020;23.094;2023-04-08T12:29:59;4.88;;;3.50;;
22754;SDS011;11544;42.020;23.094;2023-04-08T12:32:26;6.32;;;4.40;;
22754;SDS011;11544;42.020;23.094;2023-04-08T12:35:06;6.97;;;4.30;;
22754;SDS011;11544;42.020;23.094;2023-04-08T12:37:33;7.20;;;4.78;;
22754;SDS011;11544;42.020;23.094;2023-04-08T12:40:00;6.53;;;4.97;;
22754;SDS011;11544;42.020;23.094;2023-04-08T12:42:27;6.82;;;4.57;;
22754;SDS011;11544;42.020;23.094;2023-04-08T12:44:54;7.63;;;4.88;;
22754;SDS011;11544;42.020;23.094;2023-04-08T12:47:26;6.97;;;4.90;;
22754;SDS011;11544;42.020;23.094;2023-04-08T12:49:53;6.28;;;5.00;;
22754;SDS011;11544;42.020;23.094;2023-04-08T12:52:20;4.72;;;4.28;;
22754;SDS011;11544;42.020;23.094;2023-04-08T12:54:47;5.15;;;4.13;;
22754;SDS011;11544;42.020;23.094;2023-04-08T12:57:16;5.75;;;3.72;;
22754;SDS011;11544;42.020;23.094;2023-04-08T12:59:43;6.88;;;3.90;;
22754;SDS011;11544;42.020;23.094;2023-04-08T13:02:11;3.92;;;3.15;;
22754;SDS011;11544;42.020;23.094;2023-04-08T13:04:37;3.83;;;3.42;;
22754;SDS011;11544;42.020;23.094;2023-04-08T13:07:06;6.20;;;3.65;;
22754;SDS011;11544;42.020;23.094;2023-04-08T13:09:33;13.32;;;4.28;;
22754;SDS011;11544;42.020;23.094;2023-04-08T13:12:00;6.65;;;3.70;;
22754;SDS011;11544;42.020;23.094;2023-04-08T13:14:27;4.57;;;3.83;;
22754;SDS011;11544;42.020;23.094;2023-04-08T13:16:54;4.65;;;3.63;;
22754;SDS011;11544;42.020;23.094;2023-04-08T13:19:21;5.53;;;3.78;;
22754;SDS011;11544;42.020;23.094;2023-04-08T13:21:48;5.13;;;4.30;;
22754;SDS011;11544;42.020;23.094;2023-04-08T13:24:18;7.32;;;5.03;;
22754;SDS011;11544;42.020;23.094;2023-04-08T13:26:46;6.65;;;4.70;;
22754;SDS011;11544;42.020;23.094;2023-04-08T13:29:13;7.20;;;5.45;;
22754;SDS011;11544;42.020;23.094;2023-04-08T13:31:42;8.50;;;6.07;;
22754;SDS011;11544;42.020;23.094;2023-04-08T13:34:15;10.27;;;6.05;;
22754;SDS011;11544;42.020;23.094;2023-04-08T13:39:18;7.28;;;5.10;;
22754;SDS011;11544;42.020;23.094;2023-04-08T13:41:46;7.30;;;4.72;;
22754;SDS011;11544;42.020;23.094;2023-04-08T13:53:24;6.65;;;5.18;;
22754;SDS011;11544;42.020;23.094;2023-04-08T14:07:46;8.18;;;4.85;;
22754;SDS011;11544;42.020;23.094;2023-04-08T14:10:13;5.88;;;4.63;;
22754;SDS011;11544;42.020;23.094;2023-04-08T14:12:42;7.82;;;5.05;;
22754;SDS011;11544;42.020;23.094;2023-04-08T14:15:09;7.25;;;5.00;;
22754;SDS011;11544;42.020;23.094;2023-04-08T14:17:37;5.63;;;4.85;;
22754;SDS011;11544;42.020;23.094;2023-04-08T14:20:05;10.43;;;5.55;;
22754;SDS011;11544;42.020;23.094;2023-04-08T14:22:41;7.40;;;5.90;;
22754;SDS011;11544;42.020;23.094;2023-04-08T14:25:32;12.55;;;7.28;;
22754;SDS011;11544;42.020;23.094;2023-04-08T14:28:44;10.98;;;6.55;;
22754;SDS011;11544;42.020;23.094;2023-04-08T14:38:19;9.18;;;6.40;;
22754;SDS011;11544;42.020;23.094;2023-04-08T14:54:34;10.82;;;7.85;;
22754;SDS011;11544;42.020;23.094;2023-04-08T14:57:45;9.93;;;7.80;;
22754;SDS011;11544;42.020;23.094;2023-04-08T15:03:18;9.50;;;7.25;;
22754;SDS011;11544;42.020;23.094;2023-04-08T15:05:51;8.93;;;6.82;;
22754;SDS011;11544;42.020;23.094;2023-04-08T15:08:21;7.93;;;6.40;;
22754;SDS011;11544;42.020;23.094;2023-04-08T15:11:05;11.00;;;7.05;;
22754;SDS011;11544;42.020;23.094;2023-04-08T15:16:38;10.27;;;7.93;;
22754;SDS011;11544;42.020;23.094;2023-04-08T15:19:35;8.93;;;7.10;;
22754;SDS011;11544;42.020;23.094;2023-04-08T15:24:50;10.57;;;8.20;;
22754;SDS011;11544;42.020;23.094;2023-04-08T15:56:48;12.25;;;8.35;;
22754;SDS011;11544;42.020;23.094;2023-04-08T15:59:40;11.73;;;8.30;;
22754;SDS011;11544;42.020;23.094;2023-04-08T16:05:42;14.70;;;9.75;;
22754;SDS011;11544;42.020;23.094;2023-04-08T16:08:54;11.55;;;7.68;;
22754;SDS011;11544;42.020;23.094;2023-04-08T16:23:15;17.38;;;10.48;;
22754;SDS011;11544;42.020;23.094;2023-04-08T16:34:11;14.27;;;10.48;;
22754;SDS011;11544;42.020;23.094;2023-04-08T16:36:39;12.85;;;9.57;;
22754;SDS011;11544;42.020;23.094;2023-04-08T16:39:10;15.90;;;10.95;;
22754;SDS011;11544;42.020;23.094;2023-04-08T16:41:42;16.67;;;11.18;;
22754;SDS011;11544;42.020;23.094;2023-04-08T16:44:10;13.63;;;10.30;;
22754;SDS011;11544;42.020;23.094;2023-04-08T16:46:52;14.18;;;9.65;;
22754;SDS011;11544;42.020;23.094;2023-04-08T16:49:22;13.85;;;9.95;;
22754;SDS011;11544;42.020;23.094;2023-04-08T16:51:53;13.55;;;10.43;;
22754;SDS011;11544;42.020;23.094;2023-04-08T16:54:20;13.70;;;10.32;;
22754;SDS011;11544;42.020;23.094;2023-04-08T16:56:47;15.98;;;11.43;;
22754;SDS011;11544;42.020;23.094;2023-04-08T16:59:14;15.98;;;12.00;;
22754;SDS011;11544;42.020;23.094;2023-04-08T17:01:41;15.30;;;10.73;;
22754;SDS011;11544;42.020;23.094;2023-04-08T17:04:08;16.90;;;11.38;;
22754;SDS011;11544;42.020;23.094;2023-04-08T17:06:36;16.98;;;11.40;;
22754;SDS011;11544;42.020;23.094;2023-04-08T17:09:06;17.08;;;11.90;;
22754;SDS011;11544;42.020;23.094;2023-04-08T17:11:34;19.95;;;13.48;;
22754;SDS011;11544;42.020;23.094;2023-04-08T17:14:04;17.58;;;11.10;;
22754;SDS011;11544;42.020;23.094;2023-04-08T17:16:31;18.73;;;11.82;;
22754;SDS011;11544;42.020;23.094;2023-04-08T17:18:59;13.27;;;10.07;;
22754;SDS011;11544;42.020;23.094;2023-04-08T17:21:26;16.63;;;10.82;;
22754;SDS011;11544;42.020;23.094;2023-04-08T17:24:02;11.02;;;8.75;;
22754;SDS011;11544;42.020;23.094;2023-04-08T17:26:42;13.40;;;9.38;;
22754;SDS011;11544;42.020;23.094;2023-04-08T17:29:19;14.02;;;8.95;;
22754;SDS011;11544;42.020;23.094;2023-04-08T17:32:14;12.88;;;9.40;;
22754;SDS011;11544;42.020;23.094;2023-04-08T17:57:51;21.08;;;12.85;;
22754;SDS011;11544;42.020;23.094;2023-04-08T18:00:18;19.17;;;12.85;;
22754;SDS011;11544;42.020;23.094;2023-04-08T18:02:47;22.08;;;12.52;;
22754;SDS011;11544;42.020;23.094;2023-04-08T18:05:15;16.25;;;12.35;;
22754;SDS011;11544;42.020;23.094;2023-04-08T18:07:43;21.40;;;13.55;;
22754;SDS011;11544;42.020;23.094;2023-04-08T18:10:13;21.45;;;13.63;;
22754;SDS011;11544;42.020;23.094;2023-04-08T18:12:49;21.83;;;14.27;;
22754;SDS011;11544;42.020;23.094;2023-04-08T18:15:38;36.38;;;20.38;;
22754;SDS011;11544;42.020;23.094;2023-04-08T18:18:11;28.67;;;19.05;;
22754;SDS011;11544;42.020;23.094;2023-04-08T18:34:42;30.48;;;18.02;;
22754;SDS011;11544;42.020;23.094;2023-04-08T18:38:08;20.83;;;14.27;;
22754;SDS011;11544;42.020;23.094;2023-04-08T18:41:48;18.52;;;11.30;;
22754;SDS011;11544;42.020;23.094;2023-04-08T18:50:22;17.15;;;12.57;;
22754;SDS011;11544;42.020;23.094;2023-04-08T18:53:09;18.90;;;13.07;;
22754;SDS011;11544;42.020;23.094;2023-04-08T18:55:48;17.27;;;12.77;;
22754;SDS011;11544;42.020;23.094;2023-04-08T18:58:19;17.08;;;13.05;;
22754;SDS011;11544;42.020;23.094;2023-04-08T19:00:50;18.02;;;13.98;;
22754;SDS011;11544;42.020;23.094;2023-04-08T19:03:40;19.02;;;14.25;;
22754;SDS011;11544;42.020;23.094;2023-04-08T19:06:12;15.27;;;11.57;;
22754;SDS011;11544;42.020;23.094;2023-04-08T19:09:00;13.77;;;10.52;;
22754;SDS011;11544;42.020;23.094;2023-04-08T19:11:30;16.83;;;12.02;;
22754;SDS011;11544;42.020;23.094;2023-04-08T19:14:00;16.38;;;11.45;;
22754;SDS011;11544;42.020;23.094;2023-04-08T19:17:17;13.75;;;10.32;;
22754;SDS011;11544;42.020;23.094;2023-04-08T19:19:58;15.32;;;11.05;;
22754;SDS011;11544;42.020;23.094;2023-04-08T19:26:26;14.80;;;10.63;;
22754;SDS011;11544;42.020;23.094;2023-04-08T19:29:46;19.58;;;12.95;;
22754;SDS011;11544;42.020;23.094;2023-04-08T19:32:18;24.90;;;16.17;;
22754;SDS011;11544;42.020;23.094;2023-04-08T19:34:45;25.88;;;15.68;;
22754;SDS011;11544;42.020;23.094;2023-04-08T19:37:12;22.27;;;16.08;;
22754;SDS011;11544;42.020;23.094;2023-04-08T19:39:40;24.63;;;17.48;;
22754;SDS011;11544;42.020;23.094;2023-04-08T19:42:06;35.95;;;24.95;;
22754;SDS011;11544;42.020;23.094;2023-04-08T19:44:33;25.02;;;16.35;;
22754;SDS011;11544;42.020;23.094;2023-04-08T19:47:01;27.77;;;16.98;;
22754;SDS011;11544;42.020;23.094;2023-04-08T19:49:29;28.30;;;16.65;;
22754;SDS011;11544;42.020;23.094;2023-04-08T19:51:56;29.35;;;18.17;;
22754;SDS011;11544;42.020;23.094;2023-04-08T19:54:24;25.20;;;16.02;;
22754;SDS011;11544;42.020;23.094;2023-04-08T19:56:51;22.42;;;14.95;;
22754;SDS011;11544;42.020;23.094;2023-04-08T19:59:18;20.52;;;14.13;;
22754;SDS011;11544;42.020;23.094;2023-04-08T20:01:50;21.35;;;14.15;;
22754;SDS011;11544;42.020;23.094;2023-04-08T20:04:17;23.40;;;15.60;;
22754;SDS011;11544;42.020;23.094;2023-04-08T20:06:45;21.85;;;14.25;;
22754;SDS011;11544;42.020;23.094;2023-04-08T20:09:23;23.05;;;14.55;;
22754;SDS011;11544;42.020;23.094;2023-04-08T20:11:50;21.42;;;14.32;;
22754;SDS011;11544;42.020;23.094;2023-04-08T20:14:17;23.77;;;15.27;;
22754;SDS011;11544;42.020;23.094;2023-04-08T20:16:44;18.75;;;13.25;;
22754;SDS011;11544;42.020;23.094;2023-04-08T20:19:11;24.10;;;13.45;;
22754;SDS011;11544;42.020;23.094;2023-04-08T20:21:42;18.65;;;13.38;;
22754;SDS011;11544;42.020;23.094;2023-04-08T20:24:13;19.15;;;12.13;;
22754;SDS011;11544;42.020;23.094;2023-04-08T20:26:40;18.92;;;13.35;;
22754;SDS011;11544;42.020;23.094;2023-04-08T20:29:07;22.40;;;13.48;;
22754;SDS011;11544;42.020;23.094;2023-04-08T20:31:34;19.73;;;12.57;;
22754;SDS011;11544;42.020;23.094;2023-04-08T20:34:04;20.02;;;13.48;;
22754;SDS011;11544;42.020;23.094;2023-04-08T20:36:31;18.15;;;13.13;;
22754;SDS011;11544;42.020;23.094;2023-04-08T20:38:59;19.75;;;12.40;;
22754;SDS011;11544;42.020;23.094;2023-04-08T20:41:28;22.23;;;15.20;;
22754;SDS011;11544;42.020;23.094;2023-04-08T20:43:55;19.67;;;12.75;;
22754;SDS011;11544;42.020;23.094;2023-04-08T20:46:24;20.38;;;13.95;;
22754;SDS011;11544;42.020;23.094;2023-04-08T20:48:51;23.23;;;13.57;;
22754;SDS011;11544;42.020;23.094;2023-04-08T21:00:34;21.20;;;11.30;;
22754;SDS011;11544;42.020;23.094;2023-04-08T21:03:07;15.63;;;11.73;;
22754;SDS011;11544;42.020;23.094;2023-04-08T21:05:38;14.30;;;10.70;;
22754;SDS011;11544;42.020;23.094;2023-04-08T21:08:11;15.18;;;10.77;;
22754;SDS011;11544;42.020;23.094;2023-04-08T21:10:42;16.77;;;11.30;;
22754;SDS011;11544;42.020;23.094;2023-04-08T21:13:11;14.00;;;10.25;;
22754;SDS011;11544;42.020;23.094;2023-04-08T21:15:41;15.07;;;10.75;;
22754;SDS011;11544;42.020;23.094;2023-04-08T21:18:09;11.98;;;9.85;;
22754;SDS011;11544;42.020;23.094;2023-04-08T21:20:40;13.50;;;9.90;;
22754;SDS011;11544;42.020;23.094;2023-04-08T21:23:07;16.60;;;10.15;;
22754;SDS011;11544;42.020;23.094;2023-04-08T21:25:47;17.20;;;10.73;;
22754;SDS011;11544;42.020;23.094;2023-04-08T21:28:27;17.20;;;10.65;;
22754;SDS011;11544;42.020;23.094;2023-04-08T21:31:09;16.00;;;10.15;;
22754;SDS011;11544;42.020;23.094;2023-04-08T21:33:36;16.80;;;10.80;;
22754;SDS011;11544;42.020;23.094;2023-04-08T21:36:04;16.73;;;10.85;;
22754;SDS011;11544;42.020;23.094;2023-04-08T21:38:32;16.45;;;10.63;;
22754;SDS011;11544;42.020;23.094;2023-04-08T21:40:59;17.17;;;11.23;;
22754;SDS011;11544;42.020;23.094;2023-04-08T21:43:27;15.18;;;10.07;;
22754;SDS011;11544;42.020;23.094;2023-04-08T21:45:53;16.08;;;10.27;;
22754;SDS011;11544;42.020;23.094;2023-04-08T21:48:20;17.45;;;11.13;;
22754;SDS011;11544;42.020;23.094;2023-04-08T21:50:48;15.60;;;10.68;;
22754;SDS011;11544;42.020;23.094;2023-04-08T21:53:15;15.25;;;10.35;;
22754;SDS011;11544;42.020;23.094;2023-04-08T21:55:42;15.43;;;10.55;;
22754;SDS011;11544;42.020;23.094;2023-04-08T21:58:10;15.32;;;9.77;;
22754;SDS011;11544;42.020;23.094;2023-04-08T22:00:37;15.95;;;10.05;;
22754;SDS011;11544;42.020;23.094;2023-04-08T22:03:04;13.38;;;9.27;;
22754;SDS011;11544;42.020;23.094;2023-04-08T22:05:34;14.35;;;9.60;;
22754;SDS011;11544;42.020;23.094;2023-04-08T22:08:05;14.63;;;9.57;;
22754;SDS011;11544;42.020;23.094;2023-04-08T22:10:32;18.30;;;10.30;;
22754;SDS011;11544;42.020;23.094;2023-04-08T22:12:59;16.40;;;10.52;;
22754;SDS011;11544;42.020;23.094;2023-04-08T22:15:26;14.75;;;10.75;;
22754;SDS011;11544;42.020;23.094;2023-04-08T22:17:53;16.20;;;11.10;;
22754;SDS011;11544;42.020;23.094;2023-04-08T22:20:20;22.30;;;13.63;;
22754;SDS011;11544;42.020;23.094;2023-04-08T22:22:47;23.90;;;13.30;;
22754;SDS011;11544;42.020;23.094;2023-04-08T22:25:14;22.45;;;13.65;;
22754;SDS011;11544;42.020;23.094;2023-04-08T22:27:41;19.00;;;12.48;;
22754;SDS011;11544;42.020;23.094;2023-04-08T22:30:08;15.15;;;10.35;;
22754;SDS011;11544;42.020;23.094;2023-04-08T22:32:35;18.00;;;12.05;;
22754;SDS011;11544;42.020;23.094;2023-04-08T22:35:02;19.27;;;12.25;;
22754;SDS011;11544;42.020;23.094;2023-04-08T22:37:30;16.98;;;11.23;;
22754;SDS011;11544;42.020;23.094;2023-04-08T22:39:58;15.18;;;10.48;;
22754;SDS011;11544;42.020;23.094;2023-04-08T22:42:26;17.38;;;11.38;;
22754;SDS011;11544;42.020;23.094;2023-04-08T22:44:53;22.98;;;12.23;;
22754;SDS011;11544;42.020;23.094;2023-04-08T22:47:25;15.95;;;10.43;;